AUA99HC LOWW-EKCH
Flight info
| Callsign | AUA99HC |
|---|---|
| Flight time | 1h 29m |
| Altitude | 36000 |
| Route | LANUX2C LANUX DCT VLM DCT HDO M725 LUROS DCT USEDU M602 PENET T298 MONAK MONAK5A |
| Aircraft | A319/M-SDE3FGHIRWY/LB1 |
Departure
| Time | 2026-04-23 18:38 |
|---|---|
| Airport | Vienna International Airport (LOWW) |
Arrival
| Time | 2026-04-23 20:07 |
|---|---|
| Airport | Copenhagen Kastrup Airport (EKCH) |
| Time | Latitude | Longitude | Altitude | Speed | Heading |
|---|---|---|---|---|---|
| 2026-04-23 18:08 | 48.11843 | 16.56930 | 619 ft | 0 kts | 206° |
| 2026-04-23 18:20 | 48.11843 | 16.56931 | 619 ft | 0 kts | 206° |
| 2026-04-23 18:20 | 48.11843 | 16.56930 | 619 ft | 0 kts | 206° |
| 2026-04-23 18:20 | 48.11843 | 16.56931 | 619 ft | 0 kts | 206° |
| 2026-04-23 18:22 | 48.11843 | 16.56930 | 619 ft | 0 kts | 206° |
| 2026-04-23 18:22 | 48.11843 | 16.56931 | 609 ft | 0 kts | 206° |
| 2026-04-23 18:31 | 48.11851 | 16.56936 | 627 ft | 4 kts | 205° |
| 2026-04-23 18:31 | 48.11876 | 16.56951 | 620 ft | 4 kts | 195° |
| 2026-04-23 18:32 | 48.11902 | 16.56957 | 624 ft | 4 kts | 169° |
| 2026-04-23 18:32 | 48.11920 | 16.56943 | 619 ft | 1 kts | 116° |
| 2026-04-23 18:32 | 48.11920 | 16.56942 | 619 ft | 0 kts | 116° |
| 2026-04-23 18:33 | 48.11920 | 16.56944 | 620 ft | 1 kts | 116° |
| 2026-04-23 18:34 | 48.11906 | 16.56985 | 617 ft | 8 kts | 116° |
| 2026-04-23 18:34 | 48.11869 | 16.57099 | 618 ft | 15 kts | 116° |
| 2026-04-23 18:34 | 48.11843 | 16.57250 | 615 ft | 15 kts | 112° |
| 2026-04-23 18:34 | 48.11774 | 16.57362 | 608 ft | 15 kts | 159° |
| 2026-04-23 18:35 | 48.11665 | 16.57406 | 615 ft | 18 kts | 162° |
| 2026-04-23 18:35 | 48.11549 | 16.57458 | 611 ft | 17 kts | 168° |
| 2026-04-23 18:35 | 48.11433 | 16.57420 | 614 ft | 18 kts | 205° |
| 2026-04-23 18:35 | 48.11317 | 16.57334 | 611 ft | 19 kts | 206° |
| 2026-04-23 18:36 | 48.11202 | 16.57310 | 608 ft | 18 kts | 137° |
| 2026-04-23 18:36 | 48.11142 | 16.57468 | 613 ft | 17 kts | 115° |
| 2026-04-23 18:36 | 48.11089 | 16.57627 | 616 ft | 17 kts | 131° |
| 2026-04-23 18:36 | 48.10985 | 16.57606 | 608 ft | 16 kts | 214° |
| 2026-04-23 18:37 | 48.10944 | 16.57459 | 608 ft | 16 kts | 280° |
| 2026-04-23 18:37 | 48.11016 | 16.57229 | 618 ft | 50 kts | 297° |
| 2026-04-23 18:37 | 48.11268 | 16.56448 | 613 ft | 114 kts | 296° |
| 2026-04-23 18:37 | 48.11694 | 16.55145 | 662 ft | 157 kts | 297° |
| 2026-04-23 18:38 | 48.12158 | 16.53649 | 1195 ft | 160 kts | 295° |
| 2026-04-23 18:38 | 48.12272 | 16.51959 | 1806 ft | 172 kts | 275° |
| 2026-04-23 18:38 | 48.12077 | 16.50071 | 2213 ft | 196 kts | 269° |
| 2026-04-23 18:38 | 48.11801 | 16.47939 | 2596 ft | 220 kts | 269° |
| 2026-04-23 18:39 | 48.11826 | 16.45579 | 3105 ft | 236 kts | 282° |
| 2026-04-23 18:39 | 48.12037 | 16.43111 | 3974 ft | 241 kts | 285° |
| 2026-04-23 18:39 | 48.12281 | 16.40616 | 4993 ft | 242 kts | 284° |
| 2026-04-23 18:39 | 48.12538 | 16.38119 | 6035 ft | 245 kts | 285° |
| 2026-04-23 18:40 | 48.12805 | 16.35583 | 7005 ft | 249 kts | 285° |
| 2026-04-23 18:40 | 48.13078 | 16.32987 | 7874 ft | 256 kts | 285° |
| 2026-04-23 18:40 | 48.13360 | 16.30317 | 8739 ft | 264 kts | 285° |
| 2026-04-23 18:40 | 48.13650 | 16.27564 | 9584 ft | 272 kts | 285° |
| 2026-04-23 18:41 | 48.13958 | 16.24736 | 10367 ft | 278 kts | 288° |
| 2026-04-23 18:41 | 48.14641 | 16.22052 | 11133 ft | 276 kts | 306° |
| 2026-04-23 18:41 | 48.15861 | 16.19820 | 11741 ft | 285 kts | 323° |
| 2026-04-23 18:41 | 48.17569 | 16.18226 | 12040 ft | 304 kts | 336° |
| 2026-04-23 18:42 | 48.19550 | 16.16797 | 12310 ft | 328 kts | 336° |
| 2026-04-23 18:42 | 48.21648 | 16.15272 | 12789 ft | 341 kts | 336° |
| 2026-04-23 18:42 | 48.23804 | 16.13688 | 13518 ft | 348 kts | 336° |
| 2026-04-23 18:42 | 48.25987 | 16.12074 | 14241 ft | 353 kts | 336° |
| 2026-04-23 18:43 | 48.28207 | 16.10425 | 14938 ft | 358 kts | 336° |
| 2026-04-23 18:43 | 48.30450 | 16.08756 | 15628 ft | 362 kts | 336° |
| 2026-04-23 18:43 | 48.32725 | 16.07062 | 16305 ft | 367 kts | 336° |
| 2026-04-23 18:43 | 48.35020 | 16.05351 | 16994 ft | 371 kts | 336° |
| 2026-04-23 18:44 | 48.37350 | 16.03613 | 17641 ft | 375 kts | 336° |
| 2026-04-23 18:44 | 48.39704 | 16.01856 | 18263 ft | 380 kts | 336° |
| 2026-04-23 18:44 | 48.42083 | 16.00079 | 18813 ft | 383 kts | 337° |
| 2026-04-23 18:44 | 48.44475 | 15.98287 | 19367 ft | 386 kts | 337° |
| 2026-04-23 18:45 | 48.46891 | 15.96478 | 19887 ft | 389 kts | 337° |
| 2026-04-23 18:45 | 48.49325 | 15.94656 | 20410 ft | 392 kts | 338° |
| 2026-04-23 18:45 | 48.51778 | 15.92820 | 20918 ft | 395 kts | 338° |
| 2026-04-23 18:45 | 48.54249 | 15.90965 | 21407 ft | 398 kts | 338° |
| 2026-04-23 18:46 | 48.56738 | 15.89098 | 21872 ft | 401 kts | 338° |
| 2026-04-23 18:46 | 48.59221 | 15.87150 | 22336 ft | 405 kts | 336° |
| 2026-04-23 18:46 | 48.61698 | 15.85079 | 22789 ft | 409 kts | 335° |
| 2026-04-23 18:46 | 48.64173 | 15.82929 | 23235 ft | 412 kts | 335° |
| 2026-04-23 18:47 | 48.66659 | 15.80742 | 23649 ft | 415 kts | 335° |
| 2026-04-23 18:47 | 48.69163 | 15.78543 | 24018 ft | 417 kts | 335° |
| 2026-04-23 18:47 | 48.71681 | 15.76345 | 24384 ft | 419 kts | 335° |
| 2026-04-23 18:47 | 48.74214 | 15.74148 | 24745 ft | 421 kts | 336° |
| 2026-04-23 18:48 | 48.76766 | 15.71952 | 25113 ft | 422 kts | 336° |
| 2026-04-23 18:48 | 48.79328 | 15.69753 | 25474 ft | 424 kts | 336° |
| 2026-04-23 18:48 | 48.81900 | 15.67550 | 25826 ft | 426 kts | 336° |
| 2026-04-23 18:48 | 48.84486 | 15.65326 | 26164 ft | 428 kts | 336° |
| 2026-04-23 18:49 | 48.87076 | 15.63091 | 26489 ft | 430 kts | 336° |
| 2026-04-23 18:49 | 48.89719 | 15.60984 | 26799 ft | 427 kts | 341° |
| 2026-04-23 18:49 | 48.92448 | 15.59182 | 27162 ft | 428 kts | 341° |
| 2026-04-23 18:49 | 48.95179 | 15.57377 | 27511 ft | 429 kts | 341° |
| 2026-04-23 18:50 | 48.96992 | 15.56175 | 27738 ft | 430 kts | 342° |
| 2026-04-23 18:50 | 49.00671 | 15.53730 | 28101 ft | 433 kts | 341° |
| 2026-04-23 18:50 | 49.03435 | 15.51890 | 28394 ft | 435 kts | 342° |
| 2026-04-23 18:50 | 49.06217 | 15.50042 | 28688 ft | 437 kts | 342° |
| 2026-04-23 18:51 | 49.09009 | 15.48191 | 28978 ft | 438 kts | 342° |
| 2026-04-23 18:51 | 49.11800 | 15.46332 | 29384 ft | 437 kts | 342° |
| 2026-04-23 18:51 | 49.14581 | 15.44472 | 29821 ft | 436 kts | 342° |
| 2026-04-23 18:51 | 49.17352 | 15.42614 | 30280 ft | 433 kts | 341° |
| 2026-04-23 18:52 | 49.20069 | 15.40789 | 30714 ft | 431 kts | 342° |
| 2026-04-23 18:52 | 49.22805 | 15.38953 | 31086 ft | 429 kts | 342° |
| 2026-04-23 18:52 | 49.25532 | 15.37123 | 31450 ft | 428 kts | 342° |
| 2026-04-23 18:52 | 49.28256 | 15.35290 | 31814 ft | 427 kts | 342° |
| 2026-04-23 18:53 | 49.30968 | 15.33461 | 32186 ft | 426 kts | 342° |
| 2026-04-23 18:53 | 49.33676 | 15.31634 | 32537 ft | 425 kts | 342° |
| 2026-04-23 18:53 | 49.36382 | 15.29810 | 32862 ft | 424 kts | 342° |
| 2026-04-23 18:53 | 49.39089 | 15.27986 | 33173 ft | 425 kts | 342° |
| 2026-04-23 18:54 | 49.41794 | 15.26163 | 33520 ft | 424 kts | 342° |
| 2026-04-23 18:54 | 49.44484 | 15.24350 | 33926 ft | 422 kts | 342° |
| 2026-04-23 18:54 | 49.47171 | 15.22534 | 34299 ft | 420 kts | 342° |
| 2026-04-23 18:54 | 49.49838 | 15.20724 | 34623 ft | 419 kts | 342° |
| 2026-04-23 18:55 | 49.52510 | 15.18906 | 34935 ft | 419 kts | 342° |
| 2026-04-23 18:55 | 49.55170 | 15.17098 | 35239 ft | 418 kts | 342° |
| 2026-04-23 18:55 | 49.57824 | 15.15292 | 35535 ft | 417 kts | 342° |
| 2026-04-23 18:55 | 49.60479 | 15.13481 | 35834 ft | 417 kts | 342° |
| 2026-04-23 18:56 | 49.62230 | 15.12286 | 36027 ft | 416 kts | 342° |
| 2026-04-23 18:56 | 49.65768 | 15.09870 | 36386 ft | 415 kts | 342° |
| 2026-04-23 18:56 | 49.68403 | 15.08065 | 36680 ft | 414 kts | 341° |
| 2026-04-23 18:56 | 49.71032 | 15.06282 | 36959 ft | 412 kts | 342° |
| 2026-04-23 18:57 | 49.73691 | 15.04645 | 37192 ft | 410 kts | 345° |
| 2026-04-23 18:57 | 49.76369 | 15.03147 | 37380 ft | 410 kts | 346° |
| 2026-04-23 18:57 | 49.79067 | 15.01712 | 37594 ft | 410 kts | 346° |
| 2026-04-23 18:57 | 49.81769 | 15.00293 | 37821 ft | 410 kts | 346° |
| 2026-04-23 18:58 | 49.84460 | 14.98857 | 38050 ft | 409 kts | 346° |
| 2026-04-23 18:58 | 49.87153 | 14.97389 | 38172 ft | 412 kts | 345° |
| 2026-04-23 18:58 | 49.89869 | 14.95883 | 38183 ft | 416 kts | 345° |
| 2026-04-23 18:59 | 49.95335 | 14.92813 | 38175 ft | 425 kts | 345° |
| 2026-04-23 18:59 | 50.00942 | 14.89645 | 38172 ft | 427 kts | 345° |
| 2026-04-23 19:00 | 50.06497 | 14.86508 | 38170 ft | 427 kts | 345° |
| 2026-04-23 19:00 | 50.12086 | 14.83352 | 38168 ft | 427 kts | 345° |
| 2026-04-23 19:01 | 50.17679 | 14.80196 | 38146 ft | 428 kts | 345° |
| 2026-04-23 19:01 | 50.23281 | 14.77012 | 38152 ft | 429 kts | 344° |
| 2026-04-23 19:02 | 50.27944 | 14.74362 | 38160 ft | 429 kts | 344° |
| 2026-04-23 19:02 | 50.34508 | 14.70619 | 38183 ft | 430 kts | 344° |
| 2026-04-23 19:03 | 50.40127 | 14.67405 | 38190 ft | 430 kts | 344° |
| 2026-04-23 19:03 | 50.45750 | 14.64188 | 38203 ft | 430 kts | 344° |
| 2026-04-23 19:04 | 50.51359 | 14.60968 | 38207 ft | 429 kts | 344° |
| 2026-04-23 19:04 | 50.56958 | 14.57741 | 38205 ft | 429 kts | 344° |
| 2026-04-23 19:05 | 50.62558 | 14.54501 | 38171 ft | 429 kts | 344° |
| 2026-04-23 19:05 | 50.68159 | 14.51256 | 38206 ft | 429 kts | 344° |
| 2026-04-23 19:06 | 50.73763 | 14.48007 | 38208 ft | 429 kts | 344° |
| 2026-04-23 19:06 | 50.79356 | 14.44759 | 38203 ft | 428 kts | 344° |
| 2026-04-23 19:07 | 50.84950 | 14.41501 | 38210 ft | 428 kts | 343° |
| 2026-04-23 19:07 | 50.89587 | 14.38783 | 38207 ft | 428 kts | 343° |
| 2026-04-23 19:08 | 50.96231 | 14.36204 | 38208 ft | 421 kts | 356° |
| 2026-04-23 19:08 | 51.02038 | 14.35080 | 38215 ft | 420 kts | 355° |
| 2026-04-23 19:09 | 51.06893 | 14.34122 | 38216 ft | 420 kts | 355° |
| 2026-04-23 19:09 | 51.12693 | 14.32970 | 38177 ft | 420 kts | 355° |
| 2026-04-23 19:10 | 51.18510 | 14.31804 | 38188 ft | 421 kts | 355° |
| 2026-04-23 19:10 | 51.24331 | 14.30650 | 38193 ft | 422 kts | 355° |
| 2026-04-23 19:11 | 51.30159 | 14.29494 | 38204 ft | 422 kts | 355° |
| 2026-04-23 19:11 | 51.35943 | 14.28341 | 38201 ft | 422 kts | 355° |
| 2026-04-23 19:12 | 51.41771 | 14.27176 | 38217 ft | 422 kts | 355° |
| 2026-04-23 19:12 | 51.47591 | 14.26004 | 38212 ft | 422 kts | 355° |
| 2026-04-23 19:13 | 51.53415 | 14.24836 | 38208 ft | 421 kts | 355° |
| 2026-04-23 19:13 | 51.59229 | 14.23661 | 38205 ft | 421 kts | 355° |
| 2026-04-23 19:14 | 51.65038 | 14.22482 | 38211 ft | 421 kts | 355° |
| 2026-04-23 19:14 | 51.70839 | 14.21308 | 38207 ft | 420 kts | 354° |
| 2026-04-23 19:15 | 51.76640 | 14.20127 | 38204 ft | 420 kts | 354° |
| 2026-04-23 19:15 | 51.82435 | 14.18949 | 38201 ft | 420 kts | 354° |
| 2026-04-23 19:16 | 51.88226 | 14.17776 | 38200 ft | 419 kts | 354° |
| 2026-04-23 19:16 | 51.94023 | 14.16826 | 38202 ft | 419 kts | 357° |
| 2026-04-23 19:17 | 52.02748 | 14.16149 | 38196 ft | 418 kts | 358° |
| 2026-04-23 19:17 | 52.08559 | 14.15668 | 38203 ft | 418 kts | 358° |
| 2026-04-23 19:18 | 52.14363 | 14.15094 | 38192 ft | 418 kts | 357° |
| 2026-04-23 19:18 | 52.20131 | 14.14517 | 38203 ft | 418 kts | 357° |
| 2026-04-23 19:19 | 52.28824 | 14.13651 | 38198 ft | 417 kts | 357° |
| 2026-04-23 19:20 | 52.37509 | 14.12803 | 38194 ft | 417 kts | 357° |
| 2026-04-23 19:20 | 52.43296 | 14.12228 | 38199 ft | 416 kts | 357° |
| 2026-04-23 19:21 | 52.51971 | 14.11375 | 38197 ft | 416 kts | 357° |
| 2026-04-23 19:22 | 52.57737 | 14.10803 | 38161 ft | 416 kts | 357° |
| 2026-04-23 19:22 | 52.66424 | 14.09943 | 38149 ft | 418 kts | 357° |
| 2026-04-23 19:23 | 52.72239 | 14.09352 | 38153 ft | 419 kts | 357° |
| 2026-04-23 19:24 | 52.80971 | 14.08475 | 38165 ft | 420 kts | 357° |
| 2026-04-23 19:24 | 52.89718 | 14.07601 | 38174 ft | 420 kts | 357° |
| 2026-04-23 19:25 | 53.01321 | 14.06426 | 38157 ft | 418 kts | 356° |
| 2026-04-23 19:26 | 53.10018 | 14.05527 | 38167 ft | 418 kts | 356° |
| 2026-04-23 19:27 | 53.24521 | 14.04051 | 38171 ft | 417 kts | 356° |
| 2026-04-23 19:28 | 53.36118 | 14.02862 | 38173 ft | 417 kts | 356° |
| 2026-04-23 19:29 | 53.44813 | 14.01960 | 38144 ft | 418 kts | 356° |
| 2026-04-23 19:30 | 53.53538 | 14.01052 | 38151 ft | 419 kts | 356° |
| 2026-04-23 19:31 | 53.62269 | 14.00134 | 38164 ft | 419 kts | 356° |
| 2026-04-23 19:31 | 53.68056 | 13.99531 | 38170 ft | 419 kts | 356° |
| 2026-04-23 19:32 | 53.73879 | 13.98924 | 38170 ft | 419 kts | 355° |
| 2026-04-23 19:32 | 53.79706 | 13.98313 | 38173 ft | 419 kts | 355° |
| 2026-04-23 19:33 | 53.85531 | 13.97701 | 38169 ft | 419 kts | 355° |
| 2026-04-23 19:33 | 53.94156 | 13.95735 | 38172 ft | 418 kts | 339° |
| 2026-04-23 19:34 | 53.99099 | 13.90568 | 38164 ft | 422 kts | 319° |
| 2026-04-23 19:35 | 54.05499 | 13.80230 | 38133 ft | 424 kts | 319° |
| 2026-04-23 19:35 | 54.09774 | 13.73305 | 38137 ft | 425 kts | 319° |
| 2026-04-23 19:36 | 54.14046 | 13.66330 | 38149 ft | 425 kts | 319° |
| 2026-04-23 19:36 | 54.18298 | 13.59318 | 38149 ft | 425 kts | 318° |
| 2026-04-23 19:37 | 54.22556 | 13.52299 | 38149 ft | 425 kts | 319° |
| 2026-04-23 19:37 | 54.26844 | 13.45329 | 38151 ft | 425 kts | 319° |
| 2026-04-23 19:38 | 54.31121 | 13.38368 | 38142 ft | 425 kts | 318° |
| 2026-04-23 19:38 | 54.35375 | 13.31397 | 38146 ft | 426 kts | 318° |
| 2026-04-23 19:39 | 54.39665 | 13.24268 | 38148 ft | 426 kts | 317° |
| 2026-04-23 19:39 | 54.43888 | 13.17233 | 38144 ft | 423 kts | 317° |
| 2026-04-23 19:39 | 54.45989 | 13.13725 | 37489 ft | 422 kts | 318° |
| 2026-04-23 19:40 | 54.48097 | 13.10206 | 36720 ft | 423 kts | 318° |
| 2026-04-23 19:40 | 54.50211 | 13.06680 | 35975 ft | 423 kts | 318° |
| 2026-04-23 19:40 | 54.52325 | 13.03153 | 35254 ft | 423 kts | 318° |
| 2026-04-23 19:40 | 54.54437 | 12.99625 | 34546 ft | 423 kts | 319° |
| 2026-04-23 19:41 | 54.56545 | 12.96092 | 33785 ft | 423 kts | 318° |
| 2026-04-23 19:41 | 54.58651 | 12.92579 | 33036 ft | 421 kts | 320° |
| 2026-04-23 19:41 | 54.61029 | 12.89691 | 32088 ft | 419 kts | 334° |
| 2026-04-23 19:41 | 54.63789 | 12.88037 | 31086 ft | 423 kts | 347° |
| 2026-04-23 19:42 | 54.66672 | 12.86926 | 30097 ft | 426 kts | 347° |
| 2026-04-23 19:42 | 54.69577 | 12.85827 | 28974 ft | 428 kts | 347° |
| 2026-04-23 19:42 | 54.72473 | 12.84733 | 27884 ft | 423 kts | 347° |
| 2026-04-23 19:42 | 54.75317 | 12.83649 | 26846 ft | 414 kts | 347° |
| 2026-04-23 19:43 | 54.78102 | 12.82578 | 25845 ft | 406 kts | 347° |
| 2026-04-23 19:43 | 54.80836 | 12.81519 | 24883 ft | 399 kts | 347° |
| 2026-04-23 19:43 | 54.83521 | 12.80477 | 23954 ft | 393 kts | 347° |
| 2026-04-23 19:43 | 54.86173 | 12.79448 | 22922 ft | 388 kts | 347° |
| 2026-04-23 19:44 | 54.88796 | 12.78427 | 21875 ft | 385 kts | 347° |
| 2026-04-23 19:44 | 54.91409 | 12.77409 | 20853 ft | 383 kts | 347° |
| 2026-04-23 19:44 | 54.93999 | 12.76401 | 19893 ft | 380 kts | 347° |
| 2026-04-23 19:44 | 54.96567 | 12.75399 | 19007 ft | 376 kts | 347° |
| 2026-04-23 19:45 | 54.99107 | 12.74408 | 18094 ft | 372 kts | 347° |
| 2026-04-23 19:45 | 55.01620 | 12.73431 | 17132 ft | 368 kts | 347° |
| 2026-04-23 19:45 | 55.04102 | 12.72463 | 16189 ft | 364 kts | 347° |
| 2026-04-23 19:45 | 55.06565 | 12.71497 | 15285 ft | 360 kts | 347° |
| 2026-04-23 19:46 | 55.08989 | 12.70544 | 14407 ft | 356 kts | 347° |
| 2026-04-23 19:46 | 55.11386 | 12.69599 | 13468 ft | 351 kts | 347° |
| 2026-04-23 19:46 | 55.13720 | 12.68678 | 12537 ft | 345 kts | 347° |
| 2026-04-23 19:46 | 55.16045 | 12.67762 | 11610 ft | 340 kts | 347° |
| 2026-04-23 19:47 | 55.17597 | 12.67152 | 10990 ft | 336 kts | 347° |
| 2026-04-23 19:47 | 55.20574 | 12.65981 | 9963 ft | 325 kts | 347° |
| 2026-04-23 19:47 | 55.22782 | 12.65642 | 9316 ft | 314 kts | 4° |
| 2026-04-23 19:47 | 55.24814 | 12.66606 | 9144 ft | 295 kts | 21° |
| 2026-04-23 19:48 | 55.26550 | 12.68238 | 9109 ft | 270 kts | 24° |
| 2026-04-23 19:48 | 55.28145 | 12.69780 | 8841 ft | 256 kts | 24° |
| 2026-04-23 19:48 | 55.29676 | 12.71250 | 8485 ft | 246 kts | 24° |
| 2026-04-23 19:48 | 55.31151 | 12.72666 | 8113 ft | 237 kts | 24° |
| 2026-04-23 19:49 | 55.32580 | 12.74024 | 7740 ft | 230 kts | 21° |
| 2026-04-23 19:49 | 55.34090 | 12.74717 | 7370 ft | 222 kts | 360° |
| 2026-04-23 19:49 | 55.35602 | 12.74361 | 7011 ft | 219 kts | 340° |
| 2026-04-23 19:49 | 55.36928 | 12.73068 | 6642 ft | 220 kts | 321° |
| 2026-04-23 19:50 | 55.37945 | 12.71056 | 6266 ft | 221 kts | 310° |
| 2026-04-23 19:50 | 55.38900 | 12.68927 | 5872 ft | 222 kts | 310° |
| 2026-04-23 19:50 | 55.39857 | 12.66797 | 5483 ft | 222 kts | 310° |
| 2026-04-23 19:50 | 55.40817 | 12.64665 | 5109 ft | 222 kts | 310° |
| 2026-04-23 19:51 | 55.41776 | 12.62528 | 4729 ft | 223 kts | 308° |
| 2026-04-23 19:51 | 55.42424 | 12.60048 | 4331 ft | 227 kts | 284° |
| 2026-04-23 19:51 | 55.42384 | 12.57272 | 4006 ft | 230 kts | 258° |
| 2026-04-23 19:51 | 55.41647 | 12.54783 | 3729 ft | 233 kts | 232° |
| 2026-04-23 19:52 | 55.40861 | 12.53480 | 3561 ft | 235 kts | 224° |
| 2026-04-23 19:52 | 55.39280 | 12.50873 | 3215 ft | 230 kts | 238° |
| 2026-04-23 19:52 | 55.38754 | 12.48334 | 3057 ft | 220 kts | 272° |
| 2026-04-23 19:52 | 55.39145 | 12.45819 | 3017 ft | 214 kts | 305° |
| 2026-04-23 19:53 | 55.40098 | 12.43812 | 3018 ft | 215 kts | 314° |
| 2026-04-23 19:53 | 55.41157 | 12.41959 | 3013 ft | 215 kts | 323° |
| 2026-04-23 19:53 | 55.42542 | 12.41068 | 3015 ft | 216 kts | 357° |
| 2026-04-23 19:53 | 55.44030 | 12.41514 | 3020 ft | 220 kts | 13° |
| 2026-04-23 19:54 | 55.45495 | 12.42296 | 3016 ft | 220 kts | 15° |
| 2026-04-23 19:54 | 55.46956 | 12.43117 | 3016 ft | 220 kts | 15° |
| 2026-04-23 19:54 | 55.48413 | 12.43977 | 2919 ft | 224 kts | 19° |
| 2026-04-23 19:54 | 55.49687 | 12.45609 | 2533 ft | 228 kts | 39° |
| 2026-04-23 19:55 | 55.50859 | 12.47473 | 2219 ft | 226 kts | 39° |
| 2026-04-23 19:55 | 55.52037 | 12.49296 | 1903 ft | 224 kts | 38° |
| 2026-04-23 19:55 | 55.53193 | 12.51073 | 1614 ft | 222 kts | 38° |
| 2026-04-23 19:55 | 55.54329 | 12.52846 | 1890 ft | 223 kts | 39° |
| 2026-04-23 19:56 | 55.55535 | 12.54752 | 2728 ft | 241 kts | 36° |
| 2026-04-23 19:56 | 55.57037 | 12.55969 | 2933 ft | 229 kts | 4° |
| 2026-04-23 19:56 | 55.58503 | 12.55575 | 2987 ft | 210 kts | 331° |
| 2026-04-23 19:56 | 55.59538 | 12.53766 | 3006 ft | 215 kts | 297° |
| 2026-04-23 19:57 | 55.59890 | 12.51186 | 3010 ft | 219 kts | 278° |
| 2026-04-23 19:57 | 55.60004 | 12.48495 | 3010 ft | 220 kts | 276° |
| 2026-04-23 19:57 | 55.60062 | 12.46674 | 3010 ft | 220 kts | 275° |
| 2026-04-23 19:57 | 55.60166 | 12.43094 | 3011 ft | 220 kts | 275° |
| 2026-04-23 19:58 | 55.60239 | 12.40388 | 3011 ft | 220 kts | 275° |
| 2026-04-23 19:58 | 55.60266 | 12.37685 | 3006 ft | 222 kts | 266° |
| 2026-04-23 19:58 | 55.59647 | 12.35168 | 3011 ft | 231 kts | 232° |
| 2026-04-23 19:58 | 55.58393 | 12.33340 | 3013 ft | 236 kts | 217° |
| 2026-04-23 19:59 | 55.57025 | 12.31736 | 3014 ft | 236 kts | 216° |
| 2026-04-23 19:59 | 55.56109 | 12.30696 | 3015 ft | 237 kts | 215° |
| 2026-04-23 19:59 | 55.54726 | 12.29129 | 3015 ft | 236 kts | 215° |
| 2026-04-23 19:59 | 55.53340 | 12.27559 | 3021 ft | 237 kts | 215° |
| 2026-04-23 20:00 | 55.51954 | 12.25997 | 3019 ft | 237 kts | 215° |
| 2026-04-23 20:00 | 55.50563 | 12.24428 | 3023 ft | 237 kts | 215° |
| 2026-04-23 20:00 | 55.49164 | 12.22896 | 3020 ft | 238 kts | 210° |
| 2026-04-23 20:00 | 55.47553 | 12.22285 | 3023 ft | 242 kts | 176° |
| 2026-04-23 20:01 | 55.45981 | 12.23257 | 3024 ft | 242 kts | 144° |
| 2026-04-23 20:01 | 55.44690 | 12.25151 | 3021 ft | 241 kts | 134° |
| 2026-04-23 20:01 | 55.43831 | 12.27613 | 3019 ft | 237 kts | 101° |
| 2026-04-23 20:01 | 55.43788 | 12.30454 | 3018 ft | 233 kts | 78° |
| 2026-04-23 20:02 | 55.44056 | 12.33270 | 3016 ft | 234 kts | 76° |
| 2026-04-23 20:02 | 55.44379 | 12.36074 | 3014 ft | 233 kts | 70° |
| 2026-04-23 20:02 | 55.45109 | 12.38552 | 3014 ft | 226 kts | 46° |
| 2026-04-23 20:02 | 55.46248 | 12.40436 | 3016 ft | 225 kts | 37° |
| 2026-04-23 20:03 | 55.47431 | 12.42235 | 3015 ft | 225 kts | 37° |
| 2026-04-23 20:03 | 55.48593 | 12.44011 | 2777 ft | 217 kts | 37° |
| 2026-04-23 20:03 | 55.49706 | 12.45718 | 2510 ft | 207 kts | 37° |
| 2026-04-23 20:03 | 55.50741 | 12.47310 | 2239 ft | 190 kts | 37° |
| 2026-04-23 20:04 | 55.51689 | 12.48765 | 1997 ft | 173 kts | 37° |
| 2026-04-23 20:04 | 55.52561 | 12.50104 | 1782 ft | 158 kts | 37° |
| 2026-04-23 20:04 | 55.53349 | 12.51317 | 1558 ft | 143 kts | 37° |
| 2026-04-23 20:04 | 55.54083 | 12.52444 | 1369 ft | 137 kts | 37° |
| 2026-04-23 20:05 | 55.54797 | 12.53540 | 1180 ft | 135 kts | 37° |
| 2026-04-23 20:05 | 55.55504 | 12.54628 | 1002 ft | 135 kts | 37° |
| 2026-04-23 20:05 | 55.56214 | 12.55720 | 825 ft | 135 kts | 38° |
| 2026-04-23 20:05 | 55.56919 | 12.56806 | 651 ft | 134 kts | 39° |
| 2026-04-23 20:06 | 55.57611 | 12.57873 | 477 ft | 133 kts | 39° |
| 2026-04-23 20:06 | 55.58306 | 12.58944 | 305 ft | 132 kts | 40° |
| 2026-04-23 20:06 | 55.58995 | 12.60006 | 124 ft | 131 kts | 40° |
| 2026-04-23 20:06 | 55.59658 | 12.61034 | 21 ft | 115 kts | 41° |
| 2026-04-23 20:07 | 55.60184 | 12.61843 | 18 ft | 83 kts | 41° |
| 2026-04-23 20:07 | 55.60551 | 12.62413 | 20 ft | 61 kts | 40° |
| 2026-04-23 20:07 | 55.60754 | 12.62711 | 20 ft | 23 kts | 36° |
| 2026-04-23 20:07 | 55.60891 | 12.62835 | 19 ft | 22 kts | 17° |
| 2026-04-23 20:08 | 55.61014 | 12.62882 | 17 ft | 16 kts | 11° |
| 2026-04-23 20:08 | 55.61127 | 12.62928 | 17 ft | 17 kts | 23° |
| 2026-04-23 20:08 | 55.61219 | 12.63060 | 17 ft | 17 kts | 41° |
| 2026-04-23 20:08 | 55.61309 | 12.63208 | 18 ft | 18 kts | 43° |
| 2026-04-23 20:09 | 55.61406 | 12.63355 | 18 ft | 19 kts | 40° |
| 2026-04-23 20:09 | 55.61509 | 12.63515 | 17 ft | 21 kts | 41° |
| 2026-04-23 20:09 | 55.61620 | 12.63686 | 17 ft | 21 kts | 41° |
| 2026-04-23 20:09 | 55.61733 | 12.63859 | 17 ft | 22 kts | 40° |
| 2026-04-23 20:10 | 55.61848 | 12.64034 | 18 ft | 22 kts | 40° |
| 2026-04-23 20:10 | 55.61983 | 12.64166 | 18 ft | 22 kts | 25° |
| 2026-04-23 20:10 | 55.62125 | 12.64282 | 18 ft | 23 kts | 25° |
| 2026-04-23 20:10 | 55.62271 | 12.64396 | 16 ft | 22 kts | 18° |
| 2026-04-23 20:11 | 55.62407 | 12.64460 | 17 ft | 19 kts | 15° |
| 2026-04-23 20:11 | 55.62510 | 12.64438 | 17 ft | 14 kts | 307° |
| 2026-04-23 20:11 | 55.62560 | 12.64302 | 17 ft | 12 kts | 303° |
| 2026-04-23 20:11 | 55.62602 | 12.64188 | 17 ft | 10 kts | 303° |
| 2026-04-23 20:12 | 55.62648 | 12.64210 | 17 ft | 7 kts | 36° |
| 2026-04-23 20:12 | 55.62667 | 12.64231 | 19 ft | 0 kts | 33° |